00:11
Airports
History
Links
Donate
Help keep this website running!
PayPal
Bitcoin
This page is community maintained. The information is intended for PC simulator navigation or reference.
Always use approved charts for navigation.
RK6D
G 710
G 710 (RK6D)
Damyang-gun, Jeollanam-do, Korea, Republic of (517)
4
Lat/Lng:35° 20' 41" N / 127° 1' 5.51" E
35.344722 / 127.018196
Elevation:173'ft / 53mMSL
ID / ICAO:RK6D
Runways:1
Longest:09-27
Dirt 370m / 1,214ft
Nearby Weather11:00 GMT 2017-10-13
Nearby weather at RKJJ, GWANGJU located 19.2 nautical miles from RK6D
Altimeter: 30.18
Visibility: 6.2 statute miles
Wind: 4 knots (from 360°)
Temp: 16°c / 61°f
Humidity: 51.4%

METAR: RKJJ 131100Z 36004KT CAVOK 16/06 Q1022 NOSIG

(Powered by phpweather)
Nearby VORs <50NM
Nearby NDBs
Runway 09 / 27
Dimensions:370.1 x 15.2m 1214' x 50'ft
Surface:Dirt
Runway 09 [A]Runway 27 [B]
Heading:090°TH 270°TH
Lat:
Lng:
35° 20' 41"N
127° 0' 58"E
35° 20' 41"N
127° 1' 13.01"E
User Notes and Comments
35° 20' 41" N / 127° 1' 5.51" E
Distance To
Airport ID:
Nearby Airports
(C) GWANGJU 19.2 NM
RKJJ ( WX ) SW 218°
4 G 712 29.6 NM
RK60 W 264°
(U) JEON JU 37.3 NM
RKJU N
(C) KUNSAN AB 44.7 NM
RKJK ( WX ) NNW 329°
(C) YEOSU 48.5 NM
RKJY ( WX ) SE 135°
(U) G 500 53.2 NM
RK20 N
(C) MOKPO 54.2 NM
RKJM SW 221°
VFR Chart
Flight Planning at SkyVector.com